Impacts TAF Board
For situational awareness. Not to be used for flight planning purposes.
IDs:

KLEE - Leesburg Muni, FL, US

Issued at 1749 UTC 21 Sep 2021
Updated at 1934 UTC 21 Sep 2021
Potential Impact None Slight Moderate High
Time1853Z 21/20Z 21/21Z 21/22Z 21/23Z 22/00Z 22/01Z 22/02Z 22/03Z 22/04Z 22/05Z 22/06Z 22/07Z 22/08Z>>
Type OBS PRVL PRVL PRVL PRVL PRVL PRVL PRVL PRVL PRVL PRVL PRVL PRVL PRVL
VIS 10 >6 >6 >6 >6 >6 >6 >6 >6 >6 >6 >6 >6 >6
CIG -- -- -- -- -- -- -- -- -- -- -- -- -- --
Cover FEW SCT SCT SCT SCT SCT SCT SCT SCT SCT SCT SCT SCT SCT
FltCat VFR VFR VFR VFR VFR VFR VFR VFR VFR VFR VFR VFR VFR VFR
WX -- VCTS VCTS VCTS VCTS -- -- -- -- -- -- -- -- --
WDir VRB 120 120 120 120 VRB VRB VRB VRB VRB VRB VRB VRB VRB
WSpd 0 7 7 7 7 3 3 3 3 3 3 3 3 3
WGst -- -- -- -- -- -- -- -- -- -- -- -- -- --
Raw TAF
KLEE 211749Z 2118/2218 17006KT P6SM SCT025 SCT050
  FM212000 12007KT P6SM VCTS SCT030CB SCT120
  FM220000 VRB03KT P6SM FEW035 SCT120
  FM221700 23006KT P6SM VCSH SCT025 SCT050 BKN250


Raw METAR
KLEE 211853Z 00000KT 10SM FEW042 33/22 A3002 RMK AO2 SLP164 T03280217
KLEE 211753Z 05003KT 10SM CLR 33/22 A3005 RMK AO2 SLP174 T03330222 10333 20244 58014
KLEE 211653Z 16005KT 10SM CLR 32/22 A3007 RMK AO2 SLP182 T03220222

METAR Board
Radar Display
Forecast Discussion
For situational awareness. Not to be used for flight planning purposes.